| time (UTC) | temp F | wind direction | speed MPH | gust MPH | rain 1hr in | rain 24hr in | rain mn in | humidity % | barometer mb |
| 20260506210949 | 67 | 191 | 0.0 | 0.0 | 0.00 | 0.00 | 0.00 | 26 | 1010.6 |
| 20260506210445 | 67 | 233 | 0.0 | 0.0 | 0.00 | 0.00 | 0.00 | 26 | 1010.4 |
| 20260506205942 | 66 | 222 | 0.0 | 0.0 | 0.00 | 0.00 | 0.00 | 28 | 1010.7 |
| 20260506205438 | 67 | 127 | 0.0 | 1.0 | 0.00 | 0.00 | 0.00 | 26 | 1010.4 |
| 20260506204934 | 67 | 254 | 1.0 | 2.0 | 0.00 | 0.00 | 0.00 | 25 | 1010.6 |
| 20260506204432 | 67 | 276 | 2.0 | 3.0 | 0.00 | 0.00 | 0.00 | 26 | 1010.7 |
| 20260506203929 | 67 | 288 | 2.0 | 6.0 | 0.00 | 0.00 | 0.00 | 26 | 1010.6 |
| 20260506203427 | 68 | 194 | 0.0 | 0.0 | 0.00 | 0.00 | 0.00 | 25 | 1010.7 |
| 20260506202923 | 68 | 245 | 0.0 | 0.0 | 0.00 | 0.00 | 0.00 | 26 | 1010.9 |
| 20260506202421 | 68 | 236 | 0.0 | 0.0 | 0.00 | 0.00 | 0.00 | 26 | 1010.9 |
| 20260506201917 | 67 | 123 | 0.0 | 0.0 | 0.00 | 0.00 | 0.00 | 25 | 1011.0 |
| 20260506201415 | 67 | 144 | 1.0 | 1.0 | 0.00 | 0.00 | 0.00 | 26 | 1011.1 |
| 20260506200911 | 66 | 285 | 1.0 | 2.0 | 0.00 | 0.00 | 0.00 | 26 | 1011.3 |
| 20260506200407 | 66 | 259 | 0.0 | 0.0 | 0.00 | 0.00 | 0.00 | 26 | 1011.5 |
| 20260506195904 | 65 | 119 | 0.0 | 0.0 | 0.00 | 0.00 | 0.00 | 27 | 1011.6 |
| 20260506195401 | 64 | 203 | 0.0 | 0.0 | 0.00 | 0.00 | 0.00 | 27 | 1011.7 |
| 20260506194858 | 64 | 209 | 0.0 | 0.0 | 0.00 | 0.00 | 0.00 | 27 | 1011.7 |
| 20260506194354 | 64 | 193 | 0.0 | 0.0 | 0.00 | 0.00 | 0.00 | 27 | 1011.7 |
| 20260506193852 | 64 | 211 | 0.0 | 1.0 | 0.00 | 0.00 | 0.00 | 28 | 1011.9 |
| 20260506193349 | 63 | 226 | 0.0 | 0.0 | 0.00 | 0.00 | 0.00 | 28 | 1012.0 |
| 20260506192845 | 63 | 155 | 3.0 | 5.0 | 0.00 | 0.00 | 0.00 | 28 | 1011.9 |
| 20260506192342 | 63 | 91 | 0.0 | 0.0 | 0.00 | 0.00 | 0.00 | 28 | 1011.9 |
| 20260506191839 | 62 | 274 | 3.0 | 3.0 | 0.00 | 0.00 | 0.00 | 29 | 1011.9 |
| 20260506191335 | 64 | 275 | 5.0 | 7.0 | 0.00 | 0.00 | 0.00 | 27 | 1012.2 |
| 20260506190832 | 63 | 205 | 0.0 | 1.0 | 0.00 | 0.00 | 0.00 | 28 | 1012.3 |
| 20260506190328 | 62 | 196 | 2.0 | 2.0 | 0.00 | 0.00 | 0.00 | 28 | 1012.4 |
| 20260506185825 | 62 | 256 | 0.0 | 0.0 | 0.00 | 0.00 | 0.00 | 30 | 1012.3 |
| 20260506185322 | 61 | 242 | 0.0 | 0.0 | 0.00 | 0.00 | 0.00 | 31 | 1012.6 |
| 20260506184819 | 61 | 264 | 0.0 | 0.0 | 0.00 | 0.00 | 0.00 | 31 | 1012.5 |
| 20260506184317 | 62 | 169 | 1.0 | 1.0 | 0.00 | 0.00 | 0.00 | 29 | 1012.7 |
| 20260506183814 | 60 | 249 | 0.0 | 0.0 | 0.00 | 0.00 | 0.00 | 32 | 1012.8 |
| 20260506183309 | 60 | 172 | 1.0 | 2.0 | 0.00 | 0.00 | 0.00 | 31 | 1012.8 |
| 20260506182806 | 60 | 173 | 2.0 | 2.0 | 0.00 | 0.00 | 0.00 | 31 | 1012.9 |
| 20260506182306 | 60 | 142 | 1.0 | 2.0 | 0.00 | 0.00 | 0.00 | 31 | 1012.9 |
| 20260506181801 | 60 | 233 | 0.0 | 0.0 | 0.00 | 0.00 | 0.00 | 31 | 1012.9 |
| 20260506181259 | 59 | 212 | 0.0 | 0.0 | 0.00 | 0.00 | 0.00 | 33 | 1013.1 |
| 20260506180756 | 59 | 282 | 2.0 | 2.0 | 0.00 | 0.00 | 0.00 | 32 | 1013.1 |
| 20260506180251 | 59 | 129 | 1.0 | 2.0 | 0.00 | 0.00 | 0.00 | 32 | 1013.2 |
| 20260506175748 | 60 | 138 | 3.0 | 3.0 | 0.00 | 0.00 | 0.00 | 32 | 1013.3 |
| 20260506175245 | 58 | 117 | 0.0 | 1.0 | 0.00 | 0.00 | 0.00 | 33 | 1013.5 |
| 20260506174742 | 58 | 189 | 0.0 | 0.0 | 0.00 | 0.00 | 0.00 | 33 | 1013.6 |
| 20260506174239 | 59 | 272 | 4.0 | 5.0 | 0.00 | 0.00 | 0.00 | 32 | 1013.6 |
| 20260506173737 | 58 | 223 | 0.0 | 0.0 | 0.00 | 0.00 | 0.00 | 33 | 1013.8 |
| 20260506173234 | 58 | 240 | 0.0 | 0.0 | 0.00 | 0.00 | 0.00 | 34 | 1013.7 |
| 20260506172730 | 59 | 203 | 0.0 | 0.0 | 0.00 | 0.00 | 0.00 | 34 | 1013.9 |
| 20260506172227 | 58 | 156 | 2.0 | 2.0 | 0.00 | 0.00 | 0.00 | 34 | 1013.9 |
| 20260506171725 | 57 | 207 | 0.0 | 0.0 | 0.00 | 0.00 | 0.00 | 35 | 1014.0 |
| 20260506171222 | 57 | 149 | 0.0 | 0.0 | 0.00 | 0.00 | 0.00 | 34 | 1014.0 |
| 20260506170719 | 57 | 244 | 0.0 | 0.0 | 0.00 | 0.00 | 0.00 | 36 | 1014.0 |
| 20260506170216 | 56 | 203 | 0.0 | 1.0 | 0.00 | 0.00 | 0.00 | 37 | 1014.4 |
| 20260506165714 | 55 | 317 | 1.0 | 1.0 | 0.00 | 0.00 | 0.00 | 38 | 1014.2 |
| 20260506165211 | 54 | 132 | 0.0 | 0.0 | 0.00 | 0.00 | 0.00 | 39 | 1014.4 |
| 20260506164708 | 54 | 270 | 1.0 | 1.0 | 0.00 | 0.00 | 0.00 | 41 | 1014.4 |
| 20260506164205 | 54 | 285 | 0.0 | 0.0 | 0.00 | 0.00 | 0.00 | 39 | 1014.5 |
| 20260506163701 | 54 | 172 | 0.0 | 0.0 | 0.00 | 0.00 | 0.00 | 39 | 1014.6 |
| 20260506163157 | 53 | 213 | 0.0 | 0.0 | 0.00 | 0.00 | 0.00 | 41 | 1014.8 |
| 20260506162653 | 53 | 238 | 0.0 | 0.0 | 0.00 | 0.00 | 0.00 | 40 | 1014.7 |
| 20260506162150 | 53 | 93 | 0.0 | 0.0 | 0.00 | 0.00 | 0.00 | 41 | 1015.1 |
| 20260506161648 | 52 | 197 | 0.0 | 1.0 | 0.00 | 0.00 | 0.00 | 42 | 1015.1 |
| 20260506161144 | 51 | 282 | 2.0 | 2.0 | 0.00 | 0.00 | 0.00 | 43 | 1015.2 |
| 20260506160642 | 52 | 288 | 2.0 | 2.0 | 0.00 | 0.00 | 0.00 | 43 | 1015.1 |
| 20260506160139 | 52 | 200 | 0.0 | 0.0 | 0.00 | 0.00 | 0.00 | 42 | 1015.3 |
| 20260506155638 | 51 | 271 | 0.0 | 1.0 | 0.00 | 0.00 | 0.00 | 44 | 1015.4 |
| 20260506155134 | 49 | 293 | 3.0 | 3.0 | 0.00 | 0.00 | 0.00 | 46 | 1015.6 |
| 20260506153236 | 49 | 259 | 2.0 | 2.0 | 0.00 | 0.00 | 0.00 | 49 | 1015.7 |
| 20260506152733 | 49 | 271 | 3.0 | 3.0 | 0.00 | 0.00 | 0.00 | 47 | 1015.7 |
| 20260506152230 | 50 | 231 | 0.0 | 0.0 | 0.00 | 0.00 | 0.00 | 46 | 1015.7 |
| 20260506151730 | 51 | 262 | 0.0 | 0.0 | 0.00 | 0.00 | 0.00 | 46 | 1015.8 |
| 20260506151225 | 50 | 282 | 0.0 | 0.0 | 0.00 | 0.00 | 0.00 | 45 | 1015.7 |
| 20260506150722 | 48 | 127 | 0.0 | 0.0 | 0.00 | 0.00 | 0.00 | 49 | 1016.0 |
| 20260506150219 | 48 | 253 | 0.0 | 0.0 | 0.00 | 0.00 | 0.00 | 53 | 1015.9 |
| 20260506145716 | 47 | 252 | 0.0 | 0.0 | 0.00 | 0.00 | 0.00 | 55 | 1015.9 |
| 20260506145213 | 45 | 243 | 0.0 | 0.0 | 0.00 | 0.00 | 0.00 | 58 | 1016.1 |
| 20260506144710 | 44 | 229 | 0.0 | 0.0 | 0.00 | 0.00 | 0.00 | 61 | 1016.1 |
| 20260506144207 | 43 | 249 | 0.0 | 0.0 | 0.00 | 0.00 | 0.00 | 61 | 1016.1 |
| 20260506143705 | 42 | 268 | 1.0 | 1.0 | 0.00 | 0.00 | 0.00 | 63 | 1016.0 |
| 20260506143202 | 42 | 270 | 0.0 | 0.0 | 0.00 | 0.00 | 0.00 | 64 | 1016.2 |
| 20260506142701 | 41 | 254 | 0.0 | 0.0 | 0.00 | 0.00 | 0.00 | 66 | 1016.1 |
| 20260506142158 | 41 | 272 | 0.0 | 0.0 | 0.00 | 0.00 | 0.00 | 67 | 1016.1 |
| 20260506141656 | 40 | 249 | 0.0 | 0.0 | 0.00 | 0.00 | 0.00 | 70 | 1016.1 |
| 20260506141154 | 37 | 244 | 0.0 | 0.0 | 0.00 | 0.00 | 0.00 | 77 | 1016.1 |
| 20260506140651 | 37 | 243 | 0.0 | 0.0 | 0.00 | 0.00 | 0.00 | 78 | 1016.2 |
| 20260506140148 | 36 | 244 | 0.0 | 0.0 | 0.00 | 0.00 | 0.00 | 79 | 1016.0 |
| 20260506135645 | 35 | 247 | 0.0 | 0.0 | 0.00 | 0.00 | 0.00 | 79 | 1016.1 |
| 20260506135141 | 35 | 247 | 0.0 | 0.0 | 0.00 | 0.00 | 0.00 | 79 | 1016.0 |
| 20260506134638 | 35 | 246 | 0.0 | 0.0 | 0.00 | 0.00 | 0.00 | 78 | 1016.0 |
| 20260506134133 | 35 | 245 | 0.0 | 0.0 | 0.00 | 0.00 | 0.00 | 78 | 1016.1 |
| 20260506133631 | 35 | 242 | 0.0 | 0.0 | 0.00 | 0.00 | 0.00 | 78 | 1016.0 |
| 20260506133128 | 35 | 247 | 0.0 | 0.0 | 0.00 | 0.00 | 0.00 | 77 | 1016.1 |
| 20260506132626 | 35 | 239 | 0.0 | 0.0 | 0.00 | 0.00 | 0.00 | 78 | 1015.9 |
| 20260506132122 | 35 | 239 | 0.0 | 0.0 | 0.00 | 0.00 | 0.00 | 77 | 1015.8 |
| 20260506131620 | 35 | 239 | 0.0 | 0.0 | 0.00 | 0.00 | 0.00 | 77 | 1015.8 |
| 20260506131116 | 35 | 239 | 0.0 | 0.0 | 0.00 | 0.00 | 0.00 | 77 | 1015.9 |
| 20260506130613 | 35 | 235 | 0.0 | 0.0 | 0.00 | 0.00 | 0.00 | 76 | 1015.8 |
| 20260506130110 | 36 | 247 | 0.0 | 0.0 | 0.00 | 0.00 | 0.00 | 76 | 1015.7 |
| 20260506125609 | 36 | 252 | 0.0 | 0.0 | 0.00 | 0.00 | 0.00 | 75 | 1015.7 |
| 20260506125106 | 36 | 241 | 0.0 | 0.0 | 0.00 | 0.00 | 0.00 | 75 | 1015.8 |
| 20260506124603 | 35 | 247 | 0.0 | 0.0 | 0.00 | 0.00 | 0.00 | 76 | 1015.6 |
| 20260506124101 | 35 | 247 | 0.0 | 0.0 | 0.00 | 0.00 | 0.00 | 76 | 1015.4 |
| 20260506123558 | 35 | 246 | 0.0 | 0.0 | 0.00 | 0.00 | 0.00 | 75 | 1015.7 |
| 20260506123057 | 35 | 246 | 0.0 | 0.0 | 0.00 | 0.00 | 0.00 | 75 | 1015.4 |
| 20260506122553 | 36 | 247 | 0.0 | 0.0 | 0.00 | 0.00 | 0.00 | 75 | 1015.3 |
| 20260506122051 | 36 | 263 | 0.0 | 0.0 | 0.00 | 0.00 | 0.00 | 74 | 1015.2 |
| 20260506121548 | 36 | 232 | 0.0 | 0.0 | 0.00 | 0.00 | 0.00 | 74 | 1015.3 |
| 20260506121044 | 36 | 210 | 0.0 | 0.0 | 0.00 | 0.00 | 0.00 | 74 | 1015.6 |
| 20260506120543 | 35 | 214 | 0.0 | 0.0 | 0.00 | 0.00 | 0.00 | 74 | 1015.1 |
| 20260506120040 | 35 | 246 | 0.0 | 0.0 | 0.00 | 0.00 | 0.00 | 74 | 1015.3 |
| 20260506115538 | 36 | 248 | 0.0 | 0.0 | 0.00 | 0.00 | 0.00 | 74 | 1015.3 |
| 20260506115036 | 36 | 250 | 0.0 | 0.0 | 0.00 | 0.00 | 0.00 | 74 | 1015.3 |
| 20260506114533 | 36 | 244 | 0.0 | 0.0 | 0.00 | 0.00 | 0.00 | 74 | 1015.3 |
| 20260506114031 | 36 | 246 | 0.0 | 0.0 | 0.00 | 0.00 | 0.00 | 74 | 1015.2 |
| 20260506113529 | 36 | 249 | 0.0 | 0.0 | 0.00 | 0.00 | 0.00 | 73 | 1015.2 |
| 20260506113026 | 36 | 235 | 0.0 | 0.0 | 0.00 | 0.00 | 0.00 | 72 | 1015.3 |
| 20260506112522 | 36 | 259 | 0.0 | 0.0 | 0.00 | 0.00 | 0.00 | 72 | 1015.3 |
| 20260506112020 | 37 | 247 | 0.0 | 0.0 | 0.00 | 0.00 | 0.00 | 72 | 1015.1 |
| 20260506111518 | 36 | 245 | 0.0 | 0.0 | 0.00 | 0.00 | 0.00 | 72 | 1015.3 |
| 20260506111015 | 37 | 248 | 0.0 | 0.0 | 0.00 | 0.00 | 0.00 | 72 | 1015.2 |
| 20260506110512 | 37 | 247 | 0.0 | 0.0 | 0.00 | 0.00 | 0.00 | 72 | 1015.1 |
| 20260506110009 | 37 | 246 | 0.0 | 0.0 | 0.00 | 0.00 | 0.00 | 71 | 1015.2 |
| 20260506105505 | 37 | 248 | 0.0 | 0.0 | 0.00 | 0.00 | 0.00 | 71 | 1015.1 |
| 20260506105003 | 37 | 247 | 0.0 | 0.0 | 0.00 | 0.00 | 0.00 | 71 | 1015.2 |
| 20260506104501 | 37 | 238 | 0.0 | 0.0 | 0.00 | 0.00 | 0.00 | 70 | 1015.1 |
| 20260506103959 | 37 | 243 | 0.0 | 0.0 | 0.00 | 0.00 | 0.00 | 70 | 1015.0 |
| 20260506103455 | 37 | 240 | 0.0 | 0.0 | 0.00 | 0.00 | 0.00 | 70 | 1015.0 |
| 20260506102952 | 37 | 259 | 0.0 | 0.0 | 0.00 | 0.00 | 0.00 | 69 | 1015.0 |
| 20260506102450 | 37 | 241 | 0.0 | 0.0 | 0.00 | 0.00 | 0.00 | 69 | 1015.0 |
| 20260506101947 | 37 | 234 | 0.0 | 0.0 | 0.00 | 0.00 | 0.00 | 69 | 1014.9 |
| 20260506101444 | 37 | 272 | 0.0 | 0.0 | 0.00 | 0.00 | 0.00 | 69 | 1014.9 |
| 20260506100941 | 38 | 237 | 0.0 | 0.0 | 0.00 | 0.00 | 0.00 | 68 | 1015.0 |
| 20260506100439 | 38 | 242 | 0.0 | 0.0 | 0.00 | 0.00 | 0.00 | 68 | 1015.0 |
| 20260506095937 | 38 | 249 | 0.0 | 0.0 | 0.00 | 0.00 | 0.00 | 67 | 1014.7 |
| 20260506095436 | 38 | 245 | 0.0 | 0.0 | 0.00 | 0.00 | 0.00 | 67 | 1015.0 |
| 20260506094931 | 39 | 260 | 0.0 | 0.0 | 0.00 | 0.00 | 0.00 | 66 | 1014.8 |
| 20260506094430 | 39 | 235 | 0.0 | 0.0 | 0.00 | 0.00 | 0.00 | 66 | 1014.7 |
| 20260506093927 | 39 | 239 | 0.0 | 0.0 | 0.00 | 0.00 | 0.00 | 66 | 1014.9 |
| 20260506093425 | 39 | 237 | 0.0 | 0.0 | 0.00 | 0.00 | 0.00 | 65 | 1015.0 |
| 20260506092923 | 39 | 248 | 0.0 | 0.0 | 0.00 | 0.00 | 0.00 | 66 | 1014.9 |
| 20260506092420 | 39 | 243 | 0.0 | 0.0 | 0.00 | 0.00 | 0.00 | 66 | 1014.8 |
| 20260506091916 | 39 | 249 | 0.0 | 0.0 | 0.00 | 0.00 | 0.00 | 65 | 1014.7 |
| 20260506091415 | 39 | 236 | 0.0 | 0.0 | 0.00 | 0.00 | 0.00 | 65 | 1014.9 |
| 20260506090912 | 39 | 248 | 0.0 | 0.0 | 0.00 | 0.00 | 0.00 | 65 | 1014.9 |
| 20260506090409 | 39 | 236 | 0.0 | 0.0 | 0.00 | 0.00 | 0.00 | 64 | 1014.9 |
| 20260506085906 | 40 | 224 | 0.0 | 0.0 | 0.00 | 0.00 | 0.00 | 63 | 1014.9 |
| 20260506085403 | 40 | 242 | 0.0 | 0.0 | 0.00 | 0.00 | 0.00 | 63 | 1014.7 |
| 20260506084859 | 40 | 241 | 0.0 | 0.0 | 0.00 | 0.00 | 0.00 | 62 | 1014.8 |
| 20260506084355 | 40 | 210 | 0.0 | 0.0 | 0.00 | 0.00 | 0.00 | 62 | 1014.8 |
| 20260506083852 | 40 | 228 | 0.0 | 0.0 | 0.00 | 0.00 | 0.00 | 62 | 1014.8 |
| 20260506083350 | 40 | 248 | 0.0 | 0.0 | 0.00 | 0.00 | 0.00 | 62 | 1014.7 |
| 20260506082847 | 41 | 233 | 0.0 | 0.0 | 0.00 | 0.00 | 0.00 | 61 | 1014.6 |
| 20260506082343 | 41 | 251 | 0.0 | 0.0 | 0.00 | 0.00 | 0.00 | 60 | 1014.8 |
| 20260506081839 | 41 | 242 | 0.0 | 0.0 | 0.00 | 0.00 | 0.00 | 60 | 1014.6 |
| 20260506081338 | 41 | 254 | 0.0 | 1.0 | 0.00 | 0.00 | 0.00 | 59 | 1014.7 |
| 20260506080835 | 42 | 261 | 0.0 | 0.0 | 0.00 | 0.00 | 0.00 | 59 | 1014.5 |
| 20260506080331 | 42 | 242 | 0.0 | 0.0 | 0.00 | 0.00 | 0.00 | 58 | 1014.5 |
| 20260506073315 | 43 | 241 | 0.0 | 0.0 | 0.00 | 0.00 | 0.00 | 56 | 1014.6 |
| 20260506072812 | 43 | 250 | 0.0 | 0.0 | 0.00 | 0.00 | 0.00 | 57 | 1014.2 |
| 20260506072310 | 43 | 250 | 0.0 | 0.0 | 0.00 | 0.00 | 0.00 | 57 | 1014.5 |
| 20260506071807 | 43 | 231 | 0.0 | 0.0 | 0.00 | 0.00 | 0.00 | 56 | 1014.2 |
| 20260506071306 | 44 | 287 | 1.0 | 1.0 | 0.00 | 0.00 | 0.00 | 55 | 1014.5 |
| 20260506070802 | 44 | 309 | 0.0 | 0.0 | 0.00 | 0.00 | 0.00 | 54 | 1014.1 |
| 20260506070259 | 44 | 212 | 0.0 | 0.0 | 0.00 | 0.00 | 0.00 | 53 | 1014.1 |
| 20260506062236 | 47 | 245 | 0.0 | 0.0 | 0.00 | 0.00 | 0.00 | 48 | 1013.9 |
| 20260506061732 | 48 | 240 | 0.0 | 0.0 | 0.00 | 0.00 | 0.00 | 46 | 1013.8 |
| 20260506061229 | 49 | 251 | 0.0 | 0.0 | 0.00 | 0.00 | 0.00 | 45 | 1013.9 |
| 20260506060728 | 51 | 228 | 0.0 | 0.0 | 0.00 | 0.00 | 0.00 | 41 | 1013.7 |
| 20260506060225 | 50 | 195 | 0.0 | 0.0 | 0.00 | 0.00 | 0.00 | 41 | 1013.6 |
| 20260506050817 | 47 | 240 | 0.0 | 0.0 | 0.00 | 0.00 | 0.00 | 49 | 1012.9 |
| 20260506050314 | 47 | 240 | 0.0 | 0.0 | 0.00 | 0.00 | 0.00 | 49 | 1012.9 |
| 20260506044804 | 48 | 244 | 0.0 | 0.0 | 0.00 | 0.00 | 0.00 | 47 | 1012.8 |
| 20260506044302 | 49 | 240 | 0.0 | 0.0 | 0.00 | 0.00 | 0.00 | 47 | 1012.8 |
| 20260506043759 | 49 | 233 | 0.0 | 0.0 | 0.00 | 0.00 | 0.00 | 45 | 1012.9 |
| 20260506043256 | 49 | 241 | 0.0 | 0.0 | 0.00 | 0.00 | 0.00 | 46 | 1012.7 |
| 20260506042755 | 50 | 244 | 0.0 | 0.0 | 0.00 | 0.00 | 0.00 | 46 | 1012.7 |
| 20260506042253 | 51 | 239 | 0.0 | 0.0 | 0.00 | 0.00 | 0.00 | 45 | 1012.8 |
| 20260506041751 | 51 | 231 | 0.0 | 0.0 | 0.00 | 0.00 | 0.00 | 44 | 1012.7 |
| 20260506041248 | 51 | 233 | 0.0 | 0.0 | 0.00 | 0.00 | 0.00 | 44 | 1012.5 |
| 20260506040745 | 51 | 234 | 0.0 | 0.0 | 0.00 | 0.00 | 0.00 | 44 | 1012.6 |
| 20260506040242 | 52 | 235 | 0.0 | 0.0 | 0.00 | 0.00 | 0.00 | 44 | 1012.5 |
| 20260506035739 | 53 | 237 | 0.0 | 0.0 | 0.00 | 0.00 | 0.00 | 43 | 1012.4 |
| 20260506035236 | 53 | 234 | 0.0 | 0.0 | 0.00 | 0.00 | 0.00 | 40 | 1012.4 |
| 20260506034733 | 53 | 240 | 0.0 | 0.0 | 0.00 | 0.00 | 0.00 | 43 | 1012.4 |
| 20260506034230 | 53 | 240 | 0.0 | 0.0 | 0.00 | 0.00 | 0.00 | 42 | 1012.4 |
| 20260506033727 | 54 | 229 | 0.0 | 0.0 | 0.00 | 0.00 | 0.00 | 42 | 1012.2 |
| 20260506033224 | 55 | 221 | 0.0 | 0.0 | 0.00 | 0.00 | 0.00 | 41 | 1012.3 |
| 20260506032721 | 56 | 244 | 0.0 | 0.0 | 0.00 | 0.00 | 0.00 | 40 | 1012.2 |
| 20260506032218 | 57 | 227 | 0.0 | 0.0 | 0.00 | 0.00 | 0.00 | 37 | 1012.2 |
| 20260506031715 | 58 | 209 | 0.0 | 0.0 | 0.00 | 0.00 | 0.00 | 35 | 1012.3 |
| 20260506031212 | 59 | 235 | 0.0 | 0.0 | 0.00 | 0.00 | 0.00 | 31 | 1012.1 |
| 20260506030710 | 60 | 241 | 0.0 | 0.0 | 0.00 | 0.00 | 0.00 | 31 | 1012.3 |
| 20260506030207 | 60 | 229 | 0.0 | 0.0 | 0.00 | 0.00 | 0.00 | 30 | 1012.1 |
| 20260506025704 | 61 | 239 | 0.0 | 0.0 | 0.00 | 0.00 | 0.00 | 31 | 1012.0 |
| 20260506025200 | 62 | 233 | 0.0 | 0.0 | 0.00 | 0.00 | 0.00 | 29 | 1012.1 |
| 20260506024658 | 62 | 240 | 0.0 | 0.0 | 0.00 | 0.00 | 0.00 | 28 | 1012.0 |
| 20260506024154 | 64 | 245 | 0.0 | 0.0 | 0.00 | 0.00 | 0.00 | 27 | 1011.7 |
| 20260506023650 | 64 | 314 | 2.0 | 2.0 | 0.00 | 0.00 | 0.00 | 23 | 1011.7 |
| 20260506023148 | 65 | 295 | 3.0 | 3.0 | 0.00 | 0.00 | 0.00 | 22 | 1011.7 |
| 20260506022645 | 65 | 244 | 1.0 | 1.0 | 0.00 | 0.00 | 0.00 | 22 | 1011.7 |
| 20260506022142 | 66 | 274 | 1.0 | 2.0 | 0.00 | 0.00 | 0.00 | 21 | 1011.7 |
| 20260506021640 | 66 | 265 | 3.0 | 3.0 | 0.00 | 0.00 | 0.00 | 21 | 1011.5 |
| 20260506021137 | 66 | 287 | 2.0 | 2.0 | 0.00 | 0.00 | 0.00 | 21 | 1011.7 |
| 20260506020634 | 66 | 265 | 2.0 | 3.0 | 0.00 | 0.00 | 0.00 | 21 | 1011.6 |
| 20260506020131 | 66 | 261 | 3.0 | 3.0 | 0.00 | 0.00 | 0.00 | 20 | 1011.5 |
| 20260506015629 | 67 | 270 | 4.0 | 5.0 | 0.00 | 0.00 | 0.00 | 20 | 1011.6 |
| 20260506015126 | 67 | 280 | 6.0 | 7.0 | 0.00 | 0.00 | 0.00 | 19 | 1011.7 |
| 20260506014623 | 67 | 281 | 5.0 | 6.0 | 0.00 | 0.00 | 0.00 | 20 | 1011.5 |
| 20260506014118 | 68 | 270 | 7.0 | 9.0 | 0.00 | 0.00 | 0.00 | 19 | 1011.5 |
| 20260506013617 | 68 | 238 | 0.0 | 1.0 | 0.00 | 0.00 | 0.00 | 20 | 1011.5 |
| 20260506013113 | 68 | 321 | 5.0 | 7.0 | 0.00 | 0.00 | 0.00 | 18 | 1011.4 |
| 20260506012610 | 68 | 237 | 5.0 | 6.0 | 0.00 | 0.00 | 0.00 | 18 | 1011.4 |
| 20260506012106 | 68 | 275 | 1.0 | 2.0 | 0.00 | 0.00 | 0.00 | 18 | 1011.4 |
| 20260506011604 | 68 | 289 | 5.0 | 7.0 | 0.00 | 0.00 | 0.00 | 18 | 1011.6 |
| 20260506011059 | 69 | 293 | 8.0 | 9.0 | 0.00 | 0.00 | 0.00 | 18 | 1011.6 |
| 20260506010554 | 69 | 242 | 5.0 | 8.0 | 0.00 | 0.00 | 0.00 | 17 | 1011.4 |
| 20260506010050 | 69 | 284 | 7.0 | 8.0 | 0.00 | 0.00 | 0.00 | 17 | 1011.4 |
| 20260506005547 | 69 | 311 | 5.0 | 7.0 | 0.00 | 0.00 | 0.00 | 17 | 1011.5 |
| 20260506005043 | 69 | 276 | 4.0 | 6.0 | 0.00 | 0.00 | 0.00 | 17 | 1011.5 |
| 20260506004541 | 69 | 281 | 9.0 | 10.0 | 0.00 | 0.00 | 0.00 | 17 | 1011.4 |
| 20260506004037 | 69 | 269 | 3.0 | 5.0 | 0.00 | 0.00 | 0.00 | 18 | 1011.5 |
| 20260506003534 | 69 | 277 | 4.0 | 5.0 | 0.00 | 0.00 | 0.00 | 17 | 1011.5 |
| 20260506003030 | 69 | 250 | 3.0 | 5.0 | 0.00 | 0.00 | 0.00 | 16 | 1011.6 |
| 20260506002526 | 69 | 275 | 9.0 | 10.0 | 0.00 | 0.00 | 0.00 | 17 | 1011.5 |
| 20260506002022 | 69 | 324 | 5.0 | 8.0 | 0.00 | 0.00 | 0.00 | 17 | 1011.7 |
| 20260506001518 | 69 | 289 | 6.0 | 8.0 | 0.00 | 0.00 | 0.00 | 16 | 1011.5 |
| 20260506001015 | 68 | 292 | 4.0 | 5.0 | 0.00 | 0.00 | 0.00 | 17 | 1011.7 |
| 20260506000513 | 68 | 268 | 6.0 | 8.0 | 0.00 | 0.00 | 0.00 | 16 | 1011.9 |
| 20260506000010 | 69 | 280 | 6.0 | 7.0 | 0.00 | 0.00 | 0.00 | 16 | 1011.9 |
| 20260505235508 | 69 | 320 | 7.0 | 8.0 | 0.00 | 0.00 | 0.00 | 16 | 1011.9 |
| 20260505235004 | 69 | 273 | 6.0 | 8.0 | 0.00 | 0.00 | 0.00 | 15 | 1011.9 |
| 20260505234502 | 68 | 235 | 3.0 | 6.0 | 0.00 | 0.00 | 0.00 | 16 | 1012.2 |
| 20260505233958 | 68 | 286 | 6.0 | 9.0 | 0.00 | 0.00 | 0.00 | 15 | 1012.2 |
| 20260505233456 | 68 | 318 | 4.0 | 6.0 | 0.00 | 0.00 | 0.00 | 16 | 1012.1 |
| 20260505232953 | 68 | 266 | 4.0 | 5.0 | 0.00 | 0.00 | 0.00 | 16 | 1012.2 |
| 20260505232451 | 68 | 278 | 5.0 | 7.0 | 0.00 | 0.00 | 0.00 | 16 | 1012.3 |
| 20260505231948 | 69 | 286 | 4.0 | 5.0 | 0.00 | 0.00 | 0.00 | 16 | 1012.1 |
| 20260505231446 | 68 | 297 | 5.0 | 7.0 | 0.00 | 0.00 | 0.00 | 17 | 1012.3 |
| 20260505230944 | 68 | 312 | 6.0 | 8.0 | 0.00 | 0.00 | 0.00 | 16 | 1012.5 |
| 20260505230441 | 68 | 291 | 9.0 | 11.0 | 0.00 | 0.00 | 0.00 | 16 | 1012.6 |
| 20260505225937 | 68 | 296 | 6.0 | 8.0 | 0.00 | 0.00 | 0.00 | 16 | 1012.6 |
| 20260505225434 | 69 | 264 | 7.0 | 7.0 | 0.00 | 0.00 | 0.00 | 16 | 1012.6 |
| 20260505224930 | 68 | 272 | 6.0 | 7.0 | 0.00 | 0.00 | 0.00 | 16 | 1012.7 |
| 20260505224427 | 69 | 288 | 8.0 | 9.0 | 0.00 | 0.00 | 0.00 | 16 | 1012.7 |
| 20260505223924 | 68 | 248 | 1.0 | 2.0 | 0.00 | 0.00 | 0.00 | 16 | 1012.7 |
| 20260505223421 | 68 | 282 | 4.0 | 5.0 | 0.00 | 0.00 | 0.00 | 17 | 1012.8 |
| 20260505222917 | 69 | 301 | 4.0 | 5.0 | 0.00 | 0.00 | 0.00 | 17 | 1012.8 |
| 20260505222414 | 69 | 271 | 3.0 | 5.0 | 0.00 | 0.00 | 0.00 | 18 | 1013.1 |
| 20260505221910 | 68 | 274 | 3.0 | 6.0 | 0.00 | 0.00 | 0.00 | 17 | 1013.1 |
| 20260505221408 | 68 | 278 | 7.0 | 10.0 | 0.00 | 0.00 | 0.00 | 17 | 1012.9 |
| 20260505220904 | 68 | 281 | 10.0 | 13.0 | 0.00 | 0.00 | 0.00 | 17 | 1013.3 |
| 20260505220401 | 68 | 228 | 0.0 | 1.0 | 0.00 | 0.00 | 0.00 | 17 | 1013.4 |
| 20260505215859 | 68 | 269 | 1.0 | 2.0 | 0.00 | 0.00 | 0.00 | 18 | 1013.3 |
| 20260505215357 | 68 | 278 | 3.0 | 5.0 | 0.00 | 0.00 | 0.00 | 17 | 1013.5 |
| 20260505214855 | 69 | 232 | 3.0 | 5.0 | 0.00 | 0.00 | 0.00 | 17 | 1013.6 |
| 20260505214352 | 67 | 257 | 3.0 | 5.0 | 0.00 | 0.00 | 0.00 | 18 | 1013.6 |
| 20260505213849 | 67 | 276 | 9.0 | 11.0 | 0.00 | 0.00 | 0.00 | 18 | 1013.6 |
| 20260505213347 | 67 | 306 | 5.0 | 6.0 | 0.00 | 0.00 | 0.00 | 19 | 1013.7 |
| 20260505212842 | 67 | 270 | 3.0 | 5.0 | 0.00 | 0.00 | 0.00 | 18 | 1013.9 |
| 20260505212340 | 67 | 275 | 10.0 | 16.0 | 0.00 | 0.00 | 0.00 | 18 | 1013.9 |
| 20260505211836 | 66 | 268 | 4.0 | 5.0 | 0.00 | 0.00 | 0.00 | 18 | 1013.9 |